sensor_id;sensor_type;location;lat;lon;timestamp;pressure;altitude;pressure_sealevel;temperature;humidity
77019;BME280;66044;53.142;17.962;2023-02-28T00:01:20;102612.11;;;-3.45;66.21
77019;BME280;66044;53.142;17.962;2023-02-28T00:03:47;102612.96;;;-3.47;66.60
77019;BME280;66044;53.142;17.962;2023-02-28T00:06:13;102614.98;;;-3.49;66.31
77019;BME280;66044;53.142;17.962;2023-02-28T00:08:40;102613.77;;;-3.52;66.58
77019;BME280;66044;53.142;17.962;2023-02-28T00:11:09;102616.50;;;-3.58;66.47
77019;BME280;66044;53.142;17.962;2023-02-28T00:13:38;102613.07;;;-3.61;66.22
77019;BME280;66044;53.142;17.962;2023-02-28T00:16:08;102615.20;;;-3.64;66.77
77019;BME280;66044;53.142;17.962;2023-02-28T00:18:35;102614.19;;;-3.67;66.97
77019;BME280;66044;53.142;17.962;2023-02-28T00:21:02;102609.94;;;-3.70;66.87
77019;BME280;66044;53.142;17.962;2023-02-28T00:23:29;102609.11;;;-3.73;66.74
77019;BME280;66044;53.142;17.962;2023-02-28T00:26:02;102613.69;;;-3.75;66.42
77019;BME280;66044;53.142;17.962;2023-02-28T00:28:34;102612.27;;;-3.76;66.82
77019;BME280;66044;53.142;17.962;2023-02-28T00:31:00;102613.36;;;-3.75;66.69
77019;BME280;66044;53.142;17.962;2023-02-28T00:33:28;102616.95;;;-3.76;66.61
77019;BME280;66044;53.142;17.962;2023-02-28T00:36:08;102614.94;;;-3.76;67.01
77019;BME280;66044;53.142;17.962;2023-02-28T00:38:35;102614.20;;;-3.76;67.11
77019;BME280;66044;53.142;17.962;2023-02-28T00:41:02;102614.78;;;-3.76;67.18
77019;BME280;66044;53.142;17.962;2023-02-28T00:43:36;102614.56;;;-3.77;66.81
77019;BME280;66044;53.142;17.962;2023-02-28T00:46:04;102612.96;;;-3.79;67.44
77019;BME280;66044;53.142;17.962;2023-02-28T00:48:30;102609.81;;;-3.79;66.85
77019;BME280;66044;53.142;17.962;2023-02-28T00:50:57;102612.64;;;-3.79;67.02
77019;BME280;66044;53.142;17.962;2023-02-28T00:53:23;102613.55;;;-3.79;67.07
77019;BME280;66044;53.142;17.962;2023-02-28T00:55:50;102615.36;;;-3.78;67.31
77019;BME280;66044;53.142;17.962;2023-02-28T00:58:17;102616.15;;;-3.79;67.11
77019;BME280;66044;53.142;17.962;2023-02-28T01:00:43;102614.93;;;-3.79;66.50
77019;BME280;66044;53.142;17.962;2023-02-28T01:03:16;102615.96;;;-3.80;67.18
77019;BME280;66044;53.142;17.962;2023-02-28T01:05:43;102620.00;;;-3.80;66.85
77019;BME280;66044;53.142;17.962;2023-02-28T01:08:09;102624.01;;;-3.80;67.36
77019;BME280;66044;53.142;17.962;2023-02-28T01:10:36;102619.86;;;-3.82;66.90
77019;BME280;66044;53.142;17.962;2023-02-28T01:13:03;102624.42;;;-3.85;66.81
77019;BME280;66044;53.142;17.962;2023-02-28T01:15:29;102623.69;;;-3.86;67.17
77019;BME280;66044;53.142;17.962;2023-02-28T01:17:58;102626.81;;;-3.88;67.16
77019;BME280;66044;53.142;17.962;2023-02-28T01:20:24;102624.36;;;-3.90;67.32
77019;BME280;66044;53.142;17.962;2023-02-28T01:22:51;102626.90;;;-3.90;67.44
77019;BME280;66044;53.142;17.962;2023-02-28T01:25:17;102625.95;;;-3.92;67.46
77019;BME280;66044;53.142;17.962;2023-02-28T01:27:44;102628.05;;;-3.95;67.05
77019;BME280;66044;53.142;17.962;2023-02-28T01:30:11;102619.01;;;-3.97;67.30
77019;BME280;66044;53.142;17.962;2023-02-28T01:32:38;102618.06;;;-4.00;67.45
77019;BME280;66044;53.142;17.962;2023-02-28T01:35:05;102613.21;;;-4.00;67.34
77019;BME280;66044;53.142;17.962;2023-02-28T01:37:31;102611.33;;;-3.99;67.00
77019;BME280;66044;53.142;17.962;2023-02-28T01:39:57;102610.81;;;-3.98;67.43
77019;BME280;66044;53.142;17.962;2023-02-28T01:42:24;102609.25;;;-3.97;67.08
77019;BME280;66044;53.142;17.962;2023-02-28T01:47:40;102609.27;;;-3.93;67.28
77019;BME280;66044;53.142;17.962;2023-02-28T01:50:15;102608.54;;;-3.90;66.98
77019;BME280;66044;53.142;17.962;2023-02-28T01:52:43;102605.77;;;-3.86;67.44
77019;BME280;66044;53.142;17.962;2023-02-28T01:55:12;102603.95;;;-3.83;66.87
77019;BME280;66044;53.142;17.962;2023-02-28T01:57:43;102603.08;;;-3.81;67.31
77019;BME280;66044;53.142;17.962;2023-02-28T02:00:14;102603.59;;;-3.85;67.16
77019;BME280;66044;53.142;17.962;2023-02-28T02:02:43;102603.44;;;-3.90;67.03
77019;BME280;66044;53.142;17.962;2023-02-28T02:05:19;102603.71;;;-3.92;67.77
77019;BME280;66044;53.142;17.962;2023-02-28T02:07:49;102600.58;;;-3.94;67.36
77019;BME280;66044;53.142;17.962;2023-02-28T02:10:26;102602.64;;;-3.94;67.13
77019;BME280;66044;53.142;17.962;2023-02-28T02:22:31;102607.94;;;-4.04;67.76
77019;BME280;66044;53.142;17.962;2023-02-28T02:36:06;102611.85;;;-4.28;67.77
77019;BME280;66044;53.142;17.962;2023-02-28T02:39:10;102612.00;;;-4.31;67.87
77019;BME280;66044;53.142;17.962;2023-02-28T02:41:52;102618.73;;;-4.34;67.89
77019;BME280;66044;53.142;17.962;2023-02-28T02:44:42;102617.83;;;-4.38;67.99
77019;BME280;66044;53.142;17.962;2023-02-28T02:47:14;102612.30;;;-4.38;67.59
77019;BME280;66044;53.142;17.962;2023-02-28T02:49:52;102612.19;;;-4.34;67.77
77019;BME280;66044;53.142;17.962;2023-02-28T02:52:23;102612.30;;;-4.32;67.71
77019;BME280;66044;53.142;17.962;2023-02-28T02:54:54;102616.98;;;-4.31;67.70
77019;BME280;66044;53.142;17.962;2023-02-28T02:57:27;102619.09;;;-4.29;67.91
77019;BME280;66044;53.142;17.962;2023-02-28T02:59:57;102614.79;;;-4.26;67.60
77019;BME280;66044;53.142;17.962;2023-02-28T03:02:26;102616.23;;;-4.25;67.53
77019;BME280;66044;53.142;17.962;2023-02-28T03:05:06;102616.15;;;-4.23;67.66
77019;BME280;66044;53.142;17.962;2023-02-28T03:07:34;102619.08;;;-4.22;67.95
77019;BME280;66044;53.142;17.962;2023-02-28T03:10:01;102614.86;;;-4.23;67.97
77019;BME280;66044;53.142;17.962;2023-02-28T03:12:45;102614.33;;;-4.24;67.79
77019;BME280;66044;53.142;17.962;2023-02-28T03:15:21;102617.31;;;-4.26;67.91
77019;BME280;66044;53.142;17.962;2023-02-28T03:18:21;102618.65;;;-4.28;67.99
77019;BME280;66044;53.142;17.962;2023-02-28T03:21:01;102614.85;;;-4.32;67.83
77019;BME280;66044;53.142;17.962;2023-02-28T03:23:49;102617.00;;;-4.35;68.01
77019;BME280;66044;53.142;17.962;2023-02-28T03:26:23;102617.48;;;-4.39;67.56
77019;BME280;66044;53.142;17.962;2023-02-28T03:31:48;102624.45;;;-4.48;67.56
77019;BME280;66044;53.142;17.962;2023-02-28T03:34:25;102622.77;;;-4.51;67.75
77019;BME280;66044;53.142;17.962;2023-02-28T03:36:57;102622.27;;;-4.55;67.59
77019;BME280;66044;53.142;17.962;2023-02-28T03:39:30;102622.46;;;-4.58;67.29
77019;BME280;66044;53.142;17.962;2023-02-28T03:42:13;102621.86;;;-4.61;67.83
77019;BME280;66044;53.142;17.962;2023-02-28T03:44:45;102630.05;;;-4.64;67.71
77019;BME280;66044;53.142;17.962;2023-02-28T03:47:20;102632.81;;;-4.67;67.82
77019;BME280;66044;53.142;17.962;2023-02-28T03:49:54;102632.53;;;-4.69;68.51
77019;BME280;66044;53.142;17.962;2023-02-28T03:52:27;102634.56;;;-4.70;68.14
77019;BME280;66044;53.142;17.962;2023-02-28T03:55:02;102635.61;;;-4.68;68.11
77019;BME280;66044;53.142;17.962;2023-02-28T03:57:54;102637.46;;;-4.66;67.78
77019;BME280;66044;53.142;17.962;2023-02-28T04:00:30;102640.98;;;-4.62;67.94
77019;BME280;66044;53.142;17.962;2023-02-28T04:02:59;102640.20;;;-4.59;68.06
77019;BME280;66044;53.142;17.962;2023-02-28T04:05:26;102643.17;;;-4.54;68.11
77019;BME280;66044;53.142;17.962;2023-02-28T04:07:53;102643.92;;;-4.51;67.73
77019;BME280;66044;53.142;17.962;2023-02-28T04:10:20;102642.70;;;-4.47;67.98
77019;BME280;66044;53.142;17.962;2023-02-28T04:12:47;102638.81;;;-4.42;68.06
77019;BME280;66044;53.142;17.962;2023-02-28T04:15:13;102642.27;;;-4.39;68.39
77019;BME280;66044;53.142;17.962;2023-02-28T04:17:39;102641.40;;;-4.37;68.56
77019;BME280;66044;53.142;17.962;2023-02-28T04:20:07;102644.23;;;-4.36;68.12
77019;BME280;66044;53.142;17.962;2023-02-28T04:22:36;102638.41;;;-4.37;68.18
77019;BME280;66044;53.142;17.962;2023-02-28T04:25:04;102641.96;;;-4.38;67.75
77019;BME280;66044;53.142;17.962;2023-02-28T04:27:31;102638.92;;;-4.40;67.82
77019;BME280;66044;53.142;17.962;2023-02-28T04:29:58;102641.09;;;-4.44;68.06
77019;BME280;66044;53.142;17.962;2023-02-28T04:32:24;102639.33;;;-4.48;67.90
77019;BME280;66044;53.142;17.962;2023-02-28T04:34:51;102638.92;;;-4.53;67.97
77019;BME280;66044;53.142;17.962;2023-02-28T04:37:17;102641.02;;;-4.58;67.71
77019;BME280;66044;53.142;17.962;2023-02-28T04:39:44;102640.14;;;-4.62;67.70
77019;BME280;66044;53.142;17.962;2023-02-28T04:42:11;102643.30;;;-4.66;67.79
77019;BME280;66044;53.142;17.962;2023-02-28T04:44:37;102648.15;;;-4.68;68.32
77019;BME280;66044;53.142;17.962;2023-02-28T04:47:04;102649.61;;;-4.72;67.96
77019;BME280;66044;53.142;17.962;2023-02-28T04:49:31;102648.17;;;-4.76;67.71
77019;BME280;66044;53.142;17.962;2023-02-28T04:51:57;102647.96;;;-4.79;68.19
77019;BME280;66044;53.142;17.962;2023-02-28T04:54:24;102651.83;;;-4.82;67.84
77019;BME280;66044;53.142;17.962;2023-02-28T04:56:50;102656.17;;;-4.85;67.98
77019;BME280;66044;53.142;17.962;2023-02-28T04:59:17;102644.75;;;-4.87;68.15
77019;BME280;66044;53.142;17.962;2023-02-28T05:01:48;102647.69;;;-4.87;68.21
77019;BME280;66044;53.142;17.962;2023-02-28T05:04:15;102652.63;;;-4.84;67.69
77019;BME280;66044;53.142;17.962;2023-02-28T05:06:41;102653.20;;;-4.82;67.32
77019;BME280;66044;53.142;17.962;2023-02-28T05:09:08;102654.77;;;-4.79;67.56
77019;BME280;66044;53.142;17.962;2023-02-28T05:11:35;102661.58;;;-4.76;67.50
77019;BME280;66044;53.142;17.962;2023-02-28T05:14:06;102660.51;;;-4.74;67.71
77019;BME280;66044;53.142;17.962;2023-02-28T05:16:33;102657.01;;;-4.71;67.56
77019;BME280;66044;53.142;17.962;2023-02-28T05:19:00;102658.57;;;-4.68;67.22
77019;BME280;66044;53.142;17.962;2023-02-28T05:21:52;102660.35;;;-4.66;67.56
77019;BME280;66044;53.142;17.962;2023-02-28T05:24:17;102658.11;;;-4.68;67.45
77019;BME280;66044;53.142;17.962;2023-02-28T05:26:50;102658.25;;;-4.70;67.56
77019;BME280;66044;53.142;17.962;2023-02-28T05:29:18;102656.67;;;-4.70;67.08
77019;BME280;66044;53.142;17.962;2023-02-28T05:31:45;102655.31;;;-4.71;67.84
77019;BME280;66044;53.142;17.962;2023-02-28T05:34:12;102656.30;;;-4.72;67.09
77019;BME280;66044;53.142;17.962;2023-02-28T05:36:39;102651.63;;;-4.74;67.49
77019;BME280;66044;53.142;17.962;2023-02-28T05:39:06;102655.88;;;-4.78;67.36
77019;BME280;66044;53.142;17.962;2023-02-28T05:41:33;102655.82;;;-4.82;67.66
77019;BME280;66044;53.142;17.962;2023-02-28T05:44:00;102662.02;;;-4.84;67.14
77019;BME280;66044;53.142;17.962;2023-02-28T05:46:26;102664.65;;;-4.84;67.59
77019;BME280;66044;53.142;17.962;2023-02-28T05:48:53;102664.98;;;-4.84;67.44
77019;BME280;66044;53.142;17.962;2023-02-28T05:51:19;102670.27;;;-4.83;67.48
77019;BME280;66044;53.142;17.962;2023-02-28T05:53:46;102670.06;;;-4.81;67.33
77019;BME280;66044;53.142;17.962;2023-02-28T05:56:14;102667.45;;;-4.78;67.79
77019;BME280;66044;53.142;17.962;2023-02-28T05:58:41;102665.44;;;-4.76;67.69
77019;BME280;66044;53.142;17.962;2023-02-28T06:01:41;102666.98;;;-4.76;67.39
77019;BME280;66044;53.142;17.962;2023-02-28T06:04:09;102668.55;;;-4.73;67.57
77019;BME280;66044;53.142;17.962;2023-02-28T06:06:36;102669.16;;;-4.70;67.70
77019;BME280;66044;53.142;17.962;2023-02-28T06:09:04;102672.33;;;-4.67;67.31
77019;BME280;66044;53.142;17.962;2023-02-28T06:11:31;102672.80;;;-4.61;67.55
77019;BME280;66044;53.142;17.962;2023-02-28T06:13:59;102673.14;;;-4.50;67.91
77019;BME280;66044;53.142;17.962;2023-02-28T06:16:27;102678.21;;;-4.38;67.66
77019;BME280;66044;53.142;17.962;2023-02-28T06:18:54;102677.95;;;-4.27;67.27
77019;BME280;66044;53.142;17.962;2023-02-28T06:21:23;102681.75;;;-4.16;67.80
77019;BME280;66044;53.142;17.962;2023-02-28T06:23:50;102683.77;;;-4.03;67.67
77019;BME280;66044;53.142;17.962;2023-02-28T06:26:17;102684.29;;;-3.90;67.00
77019;BME280;66044;53.142;17.962;2023-02-28T06:28:44;102690.59;;;-3.75;67.15
77019;BME280;66044;53.142;17.962;2023-02-28T06:31:12;102690.21;;;-3.62;67.10
77019;BME280;66044;53.142;17.962;2023-02-28T06:33:41;102691.83;;;-3.51;67.00
77019;BME280;66044;53.142;17.962;2023-02-28T06:36:09;102696.50;;;-3.38;66.89
77019;BME280;66044;53.142;17.962;2023-02-28T06:38:37;102696.71;;;-3.24;67.01
77019;BME280;66044;53.142;17.962;2023-02-28T06:41:03;102694.27;;;-3.08;66.50
77019;BME280;66044;53.142;17.962;2023-02-28T06:43:33;102694.63;;;-2.91;66.58
77019;BME280;66044;53.142;17.962;2023-02-28T06:46:02;102700.52;;;-2.72;66.48
77019;BME280;66044;53.142;17.962;2023-02-28T06:48:29;102696.54;;;-2.49;66.18
77019;BME280;66044;53.142;17.962;2023-02-28T06:51:10;102698.52;;;-2.25;65.90
77019;BME280;66044;53.142;17.962;2023-02-28T06:53:36;102705.20;;;-1.79;65.62
77019;BME280;66044;53.142;17.962;2023-02-28T06:56:04;102713.96;;;-0.05;63.91
77019;BME280;66044;53.142;17.962;2023-02-28T06:58:32;102716.12;;;1.57;62.04
77019;BME280;66044;53.142;17.962;2023-02-28T07:00:59;102726.21;;;3.31;60.50
77019;BME280;66044;53.142;17.962;2023-02-28T07:03:26;102734.84;;;5.17;58.50
77019;BME280;66044;53.142;17.962;2023-02-28T07:05:52;102738.38;;;6.88;56.72
77019;BME280;66044;53.142;17.962;2023-02-28T07:08:19;102741.97;;;8.45;54.68
77019;BME280;66044;53.142;17.962;2023-02-28T07:10:45;102743.92;;;9.85;53.06
77019;BME280;66044;53.142;17.962;2023-02-28T07:13:12;102749.27;;;11.20;50.62
77019;BME280;66044;53.142;17.962;2023-02-28T07:15:38;102752.45;;;12.35;48.49
77019;BME280;66044;53.142;17.962;2023-02-28T07:18:05;102754.48;;;13.43;46.39
77019;BME280;66044;53.142;17.962;2023-02-28T07:20:31;102757.20;;;14.42;44.28
77019;BME280;66044;53.142;17.962;2023-02-28T07:22:57;102758.03;;;15.41;43.08
77019;BME280;66044;53.142;17.962;2023-02-28T07:25:28;102757.13;;;16.34;40.78
77019;BME280;66044;53.142;17.962;2023-02-28T07:27:55;102758.56;;;17.35;38.79
77019;BME280;66044;53.142;17.962;2023-02-28T07:30:22;102759.34;;;18.32;37.72
77019;BME280;66044;53.142;17.962;2023-02-28T07:32:48;102759.48;;;19.19;36.88
77019;BME280;66044;53.142;17.962;2023-02-28T07:35:15;102758.11;;;19.98;34.65
77019;BME280;66044;53.142;17.962;2023-02-28T07:37:42;102759.75;;;20.74;33.51
77019;BME280;66044;53.142;17.962;2023-02-28T07:40:10;102761.70;;;21.46;32.00
77019;BME280;66044;53.142;17.962;2023-02-28T07:42:40;102765.48;;;22.11;31.66
77019;BME280;66044;53.142;17.962;2023-02-28T07:45:08;102765.88;;;22.80;31.16
77019;BME280;66044;53.142;17.962;2023-02-28T07:47:42;102760.69;;;23.34;30.05
77019;BME280;66044;53.142;17.962;2023-02-28T07:50:11;102754.25;;;23.87;29.09
77019;BME280;66044;53.142;17.962;2023-02-28T07:52:39;102754.83;;;24.21;28.81
77019;BME280;66044;53.142;17.962;2023-02-28T07:55:07;102758.40;;;24.70;28.11
77019;BME280;66044;53.142;17.962;2023-02-28T07:57:34;102762.66;;;25.30;28.11
77019;BME280;66044;53.142;17.962;2023-02-28T08:00:02;102766.73;;;25.78;27.95
77019;BME280;66044;53.142;17.962;2023-02-28T08:02:29;102770.19;;;26.30;27.65
77019;BME280;66044;53.142;17.962;2023-02-28T08:04:56;102773.78;;;26.85;27.08
77019;BME280;66044;53.142;17.962;2023-02-28T08:07:22;102779.52;;;27.34;26.58
77019;BME280;66044;53.142;17.962;2023-02-28T08:09:49;102773.56;;;27.80;25.73
77019;BME280;66044;53.142;17.962;2023-02-28T08:12:15;102778.19;;;28.23;24.85
77019;BME280;66044;53.142;17.962;2023-02-28T08:14:41;102780.13;;;28.49;24.49
77019;BME280;66044;53.142;17.962;2023-02-28T08:17:09;102778.10;;;28.77;24.55
77019;BME280;66044;53.142;17.962;2023-02-28T08:19:36;102780.70;;;29.06;24.02
77019;BME280;66044;53.142;17.962;2023-02-28T08:22:03;102779.59;;;29.24;23.69
77019;BME280;66044;53.142;17.962;2023-02-28T08:24:29;102775.67;;;29.35;23.11
77019;BME280;66044;53.142;17.962;2023-02-28T08:26:56;102776.59;;;29.41;22.63
77019;BME280;66044;53.142;17.962;2023-02-28T08:29:23;102770.16;;;29.24;22.12
77019;BME280;66044;53.142;17.962;2023-02-28T08:31:49;102763.69;;;28.85;21.85
77019;BME280;66044;53.142;17.962;2023-02-28T08:34:16;102758.87;;;27.82;21.85
77019;BME280;66044;53.142;17.962;2023-02-28T08:36:43;102758.74;;;26.06;22.65
77019;BME280;66044;53.142;17.962;2023-02-28T08:39:11;102751.71;;;24.29;23.36
77019;BME280;66044;53.142;17.962;2023-02-28T08:41:38;102748.73;;;22.61;24.13
77019;BME280;66044;53.142;17.962;2023-02-28T08:44:05;102741.09;;;21.01;24.90
77019;BME280;66044;53.142;17.962;2023-02-28T08:46:31;102730.73;;;19.53;25.83
77019;BME280;66044;53.142;17.962;2023-02-28T08:48:57;102730.27;;;18.19;26.65
77019;BME280;66044;53.142;17.962;2023-02-28T08:51:27;102721.64;;;16.91;27.59
77019;BME280;66044;53.142;17.962;2023-02-28T08:53:57;102716.48;;;15.80;28.58
77019;BME280;66044;53.142;17.962;2023-02-28T08:56:23;102709.13;;;14.84;29.51
77019;BME280;66044;53.142;17.962;2023-02-28T08:58:50;102707.10;;;13.98;30.48
77019;BME280;66044;53.142;17.962;2023-02-28T09:01:19;102709.73;;;13.21;31.26
77019;BME280;66044;53.142;17.962;2023-02-28T09:03:47;102704.91;;;12.51;32.01
77019;BME280;66044;53.142;17.962;2023-02-28T09:06:16;102701.75;;;11.95;32.88
77019;BME280;66044;53.142;17.962;2023-02-28T09:08:44;102706.40;;;11.41;33.23
77019;BME280;66044;53.142;17.962;2023-02-28T09:11:11;102708.13;;;10.96;33.75
77019;BME280;66044;53.142;17.962;2023-02-28T09:13:38;102707.98;;;10.60;34.22
77019;BME280;66044;53.142;17.962;2023-02-28T09:16:08;102712.48;;;10.22;34.64
77019;BME280;66044;53.142;17.962;2023-02-28T09:18:37;102710.94;;;9.86;35.32
77019;BME280;66044;53.142;17.962;2023-02-28T09:21:08;102704.56;;;9.56;35.75
77019;BME280;66044;53.142;17.962;2023-02-28T09:23:35;102706.21;;;9.31;35.68
77019;BME280;66044;53.142;17.962;2023-02-28T09:26:04;102702.96;;;9.10;36.08
77019;BME280;66044;53.142;17.962;2023-02-28T09:28:31;102700.98;;;8.88;36.59
77019;BME280;66044;53.142;17.962;2023-02-28T09:30:58;102702.53;;;8.69;36.72
77019;BME280;66044;53.142;17.962;2023-02-28T09:33:25;102700.80;;;8.51;36.86
77019;BME280;66044;53.142;17.962;2023-02-28T09:35:58;102696.54;;;8.33;36.78
77019;BME280;66044;53.142;17.962;2023-02-28T09:38:26;102698.98;;;8.17;37.17
77019;BME280;66044;53.142;17.962;2023-02-28T09:40:58;102704.52;;;8.03;37.40
77019;BME280;66044;53.142;17.962;2023-02-28T09:43:33;102700.59;;;7.91;37.35
77019;BME280;66044;53.142;17.962;2023-02-28T09:49:00;102703.81;;;7.51;37.38
77019;BME280;66044;53.142;17.962;2023-02-28T09:51:34;102701.67;;;7.38;37.92
77019;BME280;66044;53.142;17.962;2023-02-28T09:54:04;102700.79;;;7.23;38.42
77019;BME280;66044;53.142;17.962;2023-02-28T09:56:39;102699.80;;;7.03;38.80
77019;BME280;66044;53.142;17.962;2023-02-28T10:05:05;102685.88;;;6.91;39.59
77019;BME280;66044;53.142;17.962;2023-02-28T10:10:39;102693.36;;;6.91;39.65
77019;BME280;66044;53.142;17.962;2023-02-28T10:15:58;102686.50;;;6.88;40.01
77019;BME280;66044;53.142;17.962;2023-02-28T10:18:30;102686.89;;;6.81;40.12
77019;BME280;66044;53.142;17.962;2023-02-28T10:20:59;102691.89;;;6.80;39.99
77019;BME280;66044;53.142;17.962;2023-02-28T10:23:30;102691.20;;;6.80;40.05
77019;BME280;66044;53.142;17.962;2023-02-28T10:26:01;102689.67;;;6.81;40.25
77019;BME280;66044;53.142;17.962;2023-02-28T10:28:31;102688.83;;;6.79;40.37
77019;BME280;66044;53.142;17.962;2023-02-28T10:30:58;102679.04;;;6.76;40.20
77019;BME280;66044;53.142;17.962;2023-02-28T10:33:33;102673.69;;;6.71;40.22
77019;BME280;66044;53.142;17.962;2023-02-28T10:36:02;102668.91;;;6.70;40.21
77019;BME280;66044;53.142;17.962;2023-02-28T10:38:36;102669.14;;;6.66;40.55
77019;BME280;66044;53.142;17.962;2023-02-28T10:41:05;102666.36;;;6.59;40.66
77019;BME280;66044;53.142;17.962;2023-02-28T10:43:33;102667.44;;;6.57;40.69
77019;BME280;66044;53.142;17.962;2023-02-28T10:48:34;102657.15;;;6.53;40.87
77019;BME280;66044;53.142;17.962;2023-02-28T10:51:01;102652.63;;;6.50;41.15
77019;BME280;66044;53.142;17.962;2023-02-28T10:53:37;102655.51;;;6.41;40.95
77019;BME280;66044;53.142;17.962;2023-02-28T10:58:57;102655.38;;;6.19;41.80
77019;BME280;66044;53.142;17.962;2023-02-28T11:01:46;102649.30;;;6.15;41.80
77019;BME280;66044;53.142;17.962;2023-02-28T11:07:00;102642.04;;;6.03;42.13
77019;BME280;66044;53.142;17.962;2023-02-28T11:09:31;102639.52;;;5.97;42.42
77019;BME280;66044;53.142;17.962;2023-02-28T11:11:59;102641.61;;;5.91;42.78
77019;BME280;66044;53.142;17.962;2023-02-28T11:14:28;102640.98;;;5.87;43.01
77019;BME280;66044;53.142;17.962;2023-02-28T11:17:02;102638.69;;;5.86;43.31
77019;BME280;66044;53.142;17.962;2023-02-28T11:19:43;102632.05;;;5.84;43.12
77019;BME280;66044;53.142;17.962;2023-02-28T11:22:18;102633.36;;;5.80;43.29
77019;BME280;66044;53.142;17.962;2023-02-28T11:24:49;102637.48;;;5.76;43.32
77019;BME280;66044;53.142;17.962;2023-02-28T11:27:46;102635.02;;;5.73;43.34
77019;BME280;66044;53.142;17.962;2023-02-28T11:30:25;102636.72;;;5.68;43.40
77019;BME280;66044;53.142;17.962;2023-02-28T11:32:52;102633.51;;;5.64;43.57
77019;BME280;66044;53.142;17.962;2023-02-28T11:35:33;102633.28;;;5.60;43.72
77019;BME280;66044;53.142;17.962;2023-02-28T11:38:01;102631.58;;;5.52;43.99
77019;BME280;66044;53.142;17.962;2023-02-28T11:46:10;102621.39;;;5.43;44.31
77019;BME280;66044;53.142;17.962;2023-02-28T11:52:51;102616.57;;;5.34;44.53
77019;BME280;66044;53.142;17.962;2023-02-28T12:03:32;102612.23;;;5.32;44.74
77019;BME280;66044;53.142;17.962;2023-02-28T12:14:36;102596.60;;;5.42;44.75
77019;BME280;66044;53.142;17.962;2023-02-28T12:17:27;102600.70;;;5.45;44.86
77019;BME280;66044;53.142;17.962;2023-02-28T12:20:17;102595.50;;;5.46;44.61
77019;BME280;66044;53.142;17.962;2023-02-28T12:28:24;102596.70;;;5.56;44.40
77019;BME280;66044;53.142;17.962;2023-02-28T12:31:03;102601.74;;;5.58;44.64
77019;BME280;66044;53.142;17.962;2023-02-28T12:33:47;102599.64;;;5.62;44.56
77019;BME280;66044;53.142;17.962;2023-02-28T12:36:19;102597.06;;;5.66;44.44
77019;BME280;66044;53.142;17.962;2023-02-28T12:38:53;102596.02;;;5.70;44.40
77019;BME280;66044;53.142;17.962;2023-02-28T12:41:27;102594.31;;;5.72;44.21
77019;BME280;66044;53.142;17.962;2023-02-28T12:44:01;102595.70;;;5.72;44.40
77019;BME280;66044;53.142;17.962;2023-02-28T12:46:36;102585.56;;;5.74;44.53
77019;BME280;66044;53.142;17.962;2023-02-28T12:49:18;102580.07;;;5.78;44.53
77019;BME280;66044;53.142;17.962;2023-02-28T12:51:46;102577.50;;;5.81;44.44
77019;BME280;66044;53.142;17.962;2023-02-28T12:57:09;102573.94;;;5.88;44.37
77019;BME280;66044;53.142;17.962;2023-02-28T12:59:50;102567.58;;;5.96;44.45
77019;BME280;66044;53.142;17.962;2023-02-28T13:05:15;102557.65;;;5.99;43.98
77019;BME280;66044;53.142;17.962;2023-02-28T13:10:40;102557.67;;;6.05;43.30
77019;BME280;66044;53.142;17.962;2023-02-28T13:13:14;102550.61;;;6.08;43.20
77019;BME280;66044;53.142;17.962;2023-02-28T13:15:58;102547.51;;;6.12;43.09
77019;BME280;66044;53.142;17.962;2023-02-28T13:18:37;102552.85;;;6.16;42.92
77019;BME280;66044;53.142;17.962;2023-02-28T13:21:08;102549.07;;;6.23;43.01
77019;BME280;66044;53.142;17.962;2023-02-28T13:26:12;102552.77;;;6.28;43.18
77019;BME280;66044;53.142;17.962;2023-02-28T13:31:19;102553.84;;;6.34;42.79
77019;BME280;66044;53.142;17.962;2023-02-28T13:34:05;102547.16;;;6.38;42.80
77019;BME280;66044;53.142;17.962;2023-02-28T13:36:38;102540.23;;;6.41;42.58
77019;BME280;66044;53.142;17.962;2023-02-28T13:47:30;102531.89;;;6.49;42.24
77019;BME280;66044;53.142;17.962;2023-02-28T13:52:50;102535.05;;;6.53;41.70
77019;BME280;66044;53.142;17.962;2023-02-28T13:55:26;102530.77;;;6.53;41.61
77019;BME280;66044;53.142;17.962;2023-02-28T13:58:20;102527.52;;;6.54;41.85
77019;BME280;66044;53.142;17.962;2023-02-28T14:07:02;102509.68;;;6.55;42.19
77019;BME280;66044;53.142;17.962;2023-02-28T14:09:38;102506.85;;;6.55;42.20
77019;BME280;66044;53.142;17.962;2023-02-28T14:18:05;102505.39;;;6.51;42.10
77019;BME280;66044;53.142;17.962;2023-02-28T14:20:39;102504.73;;;6.50;42.04
77019;BME280;66044;53.142;17.962;2023-02-28T14:23:26;102504.02;;;6.49;42.20
77019;BME280;66044;53.142;17.962;2023-02-28T14:26:03;102502.70;;;6.49;42.23
77019;BME280;66044;53.142;17.962;2023-02-28T14:28:54;102503.18;;;6.49;41.94
77019;BME280;66044;53.142;17.962;2023-02-28T14:31:48;102501.43;;;6.50;41.83
77019;BME280;66044;53.142;17.962;2023-02-28T14:37:20;102488.63;;;6.46;41.21
77019;BME280;66044;53.142;17.962;2023-02-28T14:39:49;102488.85;;;6.42;41.46
77019;BME280;66044;53.142;17.962;2023-02-28T14:42:47;102486.10;;;6.40;41.78
77019;BME280;66044;53.142;17.962;2023-02-28T14:45:21;102484.23;;;6.37;41.79
77019;BME280;66044;53.142;17.962;2023-02-28T14:47:51;102480.63;;;6.31;41.69
77019;BME280;66044;53.142;17.962;2023-02-28T14:50:21;102484.14;;;6.24;41.75
77019;BME280;66044;53.142;17.962;2023-02-28T14:52:52;102482.08;;;6.15;42.09
77019;BME280;66044;53.142;17.962;2023-02-28T14:55:23;102483.13;;;6.08;42.44
77019;BME280;66044;53.142;17.962;2023-02-28T14:57:56;102486.20;;;6.02;42.25
77019;BME280;66044;53.142;17.962;2023-02-28T15:00:28;102486.33;;;5.95;42.18
77019;BME280;66044;53.142;17.962;2023-02-28T15:02:56;102488.15;;;5.88;42.10